sensor_id;sensor_type;location;lat;lon;timestamp;P1;durP1;ratioP1;P2;durP2;ratioP2
77105;SDS011;66057;54.718;18.426;2023-03-13T00:01:35;13.57;;;4.85;;
77105;SDS011;66057;54.718;18.426;2023-03-13T00:04:03;14.32;;;5.85;;
77105;SDS011;66057;54.718;18.426;2023-03-13T00:06:30;19.55;;;6.80;;
77105;SDS011;66057;54.718;18.426;2023-03-13T00:08:57;16.08;;;6.47;;
77105;SDS011;66057;54.718;18.426;2023-03-13T00:11:27;22.98;;;7.93;;
77105;SDS011;66057;54.718;18.426;2023-03-13T00:13:54;18.70;;;6.00;;
77105;SDS011;66057;54.718;18.426;2023-03-13T00:16:24;11.23;;;7.10;;
77105;SDS011;66057;54.718;18.426;2023-03-13T00:18:52;24.05;;;8.02;;
77105;SDS011;66057;54.718;18.426;2023-03-13T00:21:19;14.02;;;5.82;;
77105;SDS011;66057;54.718;18.426;2023-03-13T00:23:46;17.30;;;6.95;;
77105;SDS011;66057;54.718;18.426;2023-03-13T00:26:14;16.08;;;7.55;;
77105;SDS011;66057;54.718;18.426;2023-03-13T00:28:41;15.40;;;6.53;;
77105;SDS011;66057;54.718;18.426;2023-03-13T00:33:41;25.90;;;7.88;;
77105;SDS011;66057;54.718;18.426;2023-03-13T00:36:09;16.63;;;6.88;;
77105;SDS011;66057;54.718;18.426;2023-03-13T00:38:37;20.00;;;6.63;;
77105;SDS011;66057;54.718;18.426;2023-03-13T00:43:38;14.45;;;5.78;;
77105;SDS011;66057;54.718;18.426;2023-03-13T00:46:05;12.05;;;5.95;;
77105;SDS011;66057;54.718;18.426;2023-03-13T00:48:32;10.13;;;6.10;;
77105;SDS011;66057;54.718;18.426;2023-03-13T00:50:58;11.75;;;5.15;;
77105;SDS011;66057;54.718;18.426;2023-03-13T00:53:24;16.00;;;7.38;;
77105;SDS011;66057;54.718;18.426;2023-03-13T00:55:54;15.85;;;6.45;;
77105;SDS011;66057;54.718;18.426;2023-03-13T00:58:22;17.75;;;6.60;;
77105;SDS011;66057;54.718;18.426;2023-03-13T01:03:15;11.57;;;6.13;;
77105;SDS011;66057;54.718;18.426;2023-03-13T01:05:41;21.55;;;6.28;;
77105;SDS011;66057;54.718;18.426;2023-03-13T01:08:06;13.95;;;5.65;;
77105;SDS011;66057;54.718;18.426;2023-03-13T01:10:33;16.17;;;5.78;;
77105;SDS011;66057;54.718;18.426;2023-03-13T01:12:59;11.55;;;5.00;;
77105;SDS011;66057;54.718;18.426;2023-03-13T01:15:25;20.83;;;6.15;;
77105;SDS011;66057;54.718;18.426;2023-03-13T01:17:51;13.45;;;7.40;;
77105;SDS011;66057;54.718;18.426;2023-03-13T01:20:16;11.55;;;5.32;;
77105;SDS011;66057;54.718;18.426;2023-03-13T01:22:42;14.68;;;5.70;;
77105;SDS011;66057;54.718;18.426;2023-03-13T01:25:08;17.70;;;5.78;;
77105;SDS011;66057;54.718;18.426;2023-03-13T01:27:34;20.60;;;5.93;;
77105;SDS011;66057;54.718;18.426;2023-03-13T01:30:00;15.05;;;5.60;;
77105;SDS011;66057;54.718;18.426;2023-03-13T01:32:25;9.30;;;5.20;;
77105;SDS011;66057;54.718;18.426;2023-03-13T01:34:51;14.40;;;5.70;;
77105;SDS011;66057;54.718;18.426;2023-03-13T01:37:17;18.70;;;6.60;;
77105;SDS011;66057;54.718;18.426;2023-03-13T01:39:43;15.45;;;6.57;;
77105;SDS011;66057;54.718;18.426;2023-03-13T01:42:08;16.10;;;6.88;;
77105;SDS011;66057;54.718;18.426;2023-03-13T01:44:50;19.23;;;5.68;;
77105;SDS011;66057;54.718;18.426;2023-03-13T01:47:17;16.45;;;5.90;;
77105;SDS011;66057;54.718;18.426;2023-03-13T01:49:43;12.30;;;6.40;;
77105;SDS011;66057;54.718;18.426;2023-03-13T01:52:15;13.52;;;6.18;;
77105;SDS011;66057;54.718;18.426;2023-03-13T01:54:55;15.40;;;5.88;;
77105;SDS011;66057;54.718;18.426;2023-03-13T01:57:28;11.45;;;5.97;;
77105;SDS011;66057;54.718;18.426;2023-03-13T02:00:00;17.85;;;5.20;;
77105;SDS011;66057;54.718;18.426;2023-03-13T02:02:29;8.65;;;4.97;;
77105;SDS011;66057;54.718;18.426;2023-03-13T02:04:56;13.32;;;5.13;;
77105;SDS011;66057;54.718;18.426;2023-03-13T02:07:30;12.80;;;6.43;;
77105;SDS011;66057;54.718;18.426;2023-03-13T02:10:02;9.93;;;5.35;;
77105;SDS011;66057;54.718;18.426;2023-03-13T02:12:31;14.13;;;5.22;;
77105;SDS011;66057;54.718;18.426;2023-03-13T02:14:59;9.52;;;4.47;;
77105;SDS011;66057;54.718;18.426;2023-03-13T02:17:28;9.98;;;4.28;;
77105;SDS011;66057;54.718;18.426;2023-03-13T02:19:54;17.05;;;5.78;;
77105;SDS011;66057;54.718;18.426;2023-03-13T02:27:49;8.48;;;4.78;;
77105;SDS011;66057;54.718;18.426;2023-03-13T02:30:17;12.10;;;4.32;;
77105;SDS011;66057;54.718;18.426;2023-03-13T02:32:43;12.68;;;4.50;;
77105;SDS011;66057;54.718;18.426;2023-03-13T02:35:11;11.90;;;5.18;;
77105;SDS011;66057;54.718;18.426;2023-03-13T02:37:39;10.23;;;4.93;;
77105;SDS011;66057;54.718;18.426;2023-03-13T02:40:08;13.07;;;5.55;;
77105;SDS011;66057;54.718;18.426;2023-03-13T02:42:38;11.05;;;5.20;;
77105;SDS011;66057;54.718;18.426;2023-03-13T02:45:07;12.73;;;5.03;;
77105;SDS011;66057;54.718;18.426;2023-03-13T02:47:33;12.13;;;5.43;;
77105;SDS011;66057;54.718;18.426;2023-03-13T02:49:59;12.82;;;4.78;;
77105;SDS011;66057;54.718;18.426;2023-03-13T02:52:25;11.05;;;4.88;;
77105;SDS011;66057;54.718;18.426;2023-03-13T02:54:54;9.43;;;3.70;;
77105;SDS011;66057;54.718;18.426;2023-03-13T02:57:24;10.73;;;5.57;;
77105;SDS011;66057;54.718;18.426;2023-03-13T02:59:50;11.65;;;4.78;;
77105;SDS011;66057;54.718;18.426;2023-03-13T03:02:16;11.25;;;3.88;;
77105;SDS011;66057;54.718;18.426;2023-03-13T03:04:42;8.98;;;4.53;;
77105;SDS011;66057;54.718;18.426;2023-03-13T03:07:07;9.43;;;4.78;;
77105;SDS011;66057;54.718;18.426;2023-03-13T03:09:33;10.82;;;3.17;;
77105;SDS011;66057;54.718;18.426;2023-03-13T03:11:59;9.23;;;2.97;;
77105;SDS011;66057;54.718;18.426;2023-03-13T03:14:24;10.73;;;3.80;;
77105;SDS011;66057;54.718;18.426;2023-03-13T03:16:50;7.45;;;2.75;;
77105;SDS011;66057;54.718;18.426;2023-03-13T03:19:16;6.13;;;3.03;;
77105;SDS011;66057;54.718;18.426;2023-03-13T03:21:41;10.13;;;3.47;;
77105;SDS011;66057;54.718;18.426;2023-03-13T03:24:08;7.68;;;2.72;;
77105;SDS011;66057;54.718;18.426;2023-03-13T03:26:34;5.65;;;2.42;;
77105;SDS011;66057;54.718;18.426;2023-03-13T03:28:59;7.88;;;3.17;;
77105;SDS011;66057;54.718;18.426;2023-03-13T03:31:25;5.93;;;3.60;;
77105;SDS011;66057;54.718;18.426;2023-03-13T03:33:51;6.22;;;3.03;;
77105;SDS011;66057;54.718;18.426;2023-03-13T03:36:18;11.30;;;3.00;;
77105;SDS011;66057;54.718;18.426;2023-03-13T03:38:45;6.15;;;1.98;;
77105;SDS011;66057;54.718;18.426;2023-03-13T03:41:11;4.65;;;2.35;;
77105;SDS011;66057;54.718;18.426;2023-03-13T03:43:39;8.63;;;2.80;;
77105;SDS011;66057;54.718;18.426;2023-03-13T03:46:05;8.75;;;3.33;;
77105;SDS011;66057;54.718;18.426;2023-03-13T03:48:31;8.43;;;2.80;;
77105;SDS011;66057;54.718;18.426;2023-03-13T03:50:56;6.95;;;3.30;;
77105;SDS011;66057;54.718;18.426;2023-03-13T03:53:23;3.85;;;2.70;;
77105;SDS011;66057;54.718;18.426;2023-03-13T03:55:49;7.50;;;3.63;;
77105;SDS011;66057;54.718;18.426;2023-03-13T03:58:15;6.68;;;3.15;;
77105;SDS011;66057;54.718;18.426;2023-03-13T04:00:44;6.10;;;1.67;;
77105;SDS011;66057;54.718;18.426;2023-03-13T04:03:12;7.95;;;4.03;;
77105;SDS011;66057;54.718;18.426;2023-03-13T04:05:38;8.73;;;3.75;;
77105;SDS011;66057;54.718;18.426;2023-03-13T04:08:05;5.38;;;2.67;;
77105;SDS011;66057;54.718;18.426;2023-03-13T04:10:31;8.52;;;4.50;;
77105;SDS011;66057;54.718;18.426;2023-03-13T04:12:56;6.68;;;4.10;;
77105;SDS011;66057;54.718;18.426;2023-03-13T04:15:22;9.32;;;4.15;;
77105;SDS011;66057;54.718;18.426;2023-03-13T04:17:48;5.88;;;3.88;;
77105;SDS011;66057;54.718;18.426;2023-03-13T04:20:14;11.85;;;3.80;;
77105;SDS011;66057;54.718;18.426;2023-03-13T04:22:40;8.98;;;3.85;;
77105;SDS011;66057;54.718;18.426;2023-03-13T04:25:06;10.40;;;4.63;;
77105;SDS011;66057;54.718;18.426;2023-03-13T04:27:33;8.55;;;4.20;;
77105;SDS011;66057;54.718;18.426;2023-03-13T04:29:59;8.95;;;4.57;;
77105;SDS011;66057;54.718;18.426;2023-03-13T04:32:25;10.90;;;3.83;;
77105;SDS011;66057;54.718;18.426;2023-03-13T04:34:51;9.90;;;4.53;;
77105;SDS011;66057;54.718;18.426;2023-03-13T04:37:17;11.30;;;4.53;;
77105;SDS011;66057;54.718;18.426;2023-03-13T04:39:43;12.60;;;4.68;;
77105;SDS011;66057;54.718;18.426;2023-03-13T04:42:09;12.80;;;5.28;;
77105;SDS011;66057;54.718;18.426;2023-03-13T04:44:36;7.38;;;3.58;;
77105;SDS011;66057;54.718;18.426;2023-03-13T04:47:02;9.32;;;4.68;;
77105;SDS011;66057;54.718;18.426;2023-03-13T04:49:28;10.13;;;5.38;;
77105;SDS011;66057;54.718;18.426;2023-03-13T04:51:54;9.77;;;5.05;;
77105;SDS011;66057;54.718;18.426;2023-03-13T04:54:20;12.88;;;4.72;;
77105;SDS011;66057;54.718;18.426;2023-03-13T04:56:45;12.05;;;3.65;;
77105;SDS011;66057;54.718;18.426;2023-03-13T04:59:11;11.60;;;4.68;;
77105;SDS011;66057;54.718;18.426;2023-03-13T05:01:38;14.75;;;4.75;;
77105;SDS011;66057;54.718;18.426;2023-03-13T05:04:04;11.30;;;5.07;;
77105;SDS011;66057;54.718;18.426;2023-03-13T05:06:30;17.05;;;6.13;;
77105;SDS011;66057;54.718;18.426;2023-03-13T05:08:56;14.00;;;6.18;;
77105;SDS011;66057;54.718;18.426;2023-03-13T05:11:22;11.70;;;4.75;;
77105;SDS011;66057;54.718;18.426;2023-03-13T05:13:47;10.85;;;5.18;;
77105;SDS011;66057;54.718;18.426;2023-03-13T05:16:13;19.25;;;6.15;;
77105;SDS011;66057;54.718;18.426;2023-03-13T05:18:39;16.33;;;5.70;;
77105;SDS011;66057;54.718;18.426;2023-03-13T05:21:05;9.80;;;4.25;;
77105;SDS011;66057;54.718;18.426;2023-03-13T05:23:31;17.88;;;7.50;;
77105;SDS011;66057;54.718;18.426;2023-03-13T05:25:56;11.80;;;5.20;;
77105;SDS011;66057;54.718;18.426;2023-03-13T05:28:22;16.65;;;5.03;;
77105;SDS011;66057;54.718;18.426;2023-03-13T05:30:48;11.00;;;4.70;;
77105;SDS011;66057;54.718;18.426;2023-03-13T05:33:14;15.23;;;5.70;;
77105;SDS011;66057;54.718;18.426;2023-03-13T05:35:41;15.18;;;6.40;;
77105;SDS011;66057;54.718;18.426;2023-03-13T05:38:06;13.68;;;5.85;;
77105;SDS011;66057;54.718;18.426;2023-03-13T05:40:32;12.23;;;5.07;;
77105;SDS011;66057;54.718;18.426;2023-03-13T05:42:58;18.10;;;5.90;;
77105;SDS011;66057;54.718;18.426;2023-03-13T05:45:24;12.35;;;5.90;;
77105;SDS011;66057;54.718;18.426;2023-03-13T05:47:50;17.45;;;7.00;;
77105;SDS011;66057;54.718;18.426;2023-03-13T05:50:16;14.65;;;4.35;;
77105;SDS011;66057;54.718;18.426;2023-03-13T05:52:42;15.73;;;6.70;;
77105;SDS011;66057;54.718;18.426;2023-03-13T05:55:07;9.52;;;4.43;;
77105;SDS011;66057;54.718;18.426;2023-03-13T05:57:33;14.13;;;5.85;;
77105;SDS011;66057;54.718;18.426;2023-03-13T05:59:59;13.38;;;6.28;;
77105;SDS011;66057;54.718;18.426;2023-03-13T06:02:25;14.55;;;5.50;;
77105;SDS011;66057;54.718;18.426;2023-03-13T06:04:51;12.32;;;6.03;;
77105;SDS011;66057;54.718;18.426;2023-03-13T06:07:17;11.30;;;6.45;;
77105;SDS011;66057;54.718;18.426;2023-03-13T06:09:43;18.10;;;6.97;;
77105;SDS011;66057;54.718;18.426;2023-03-13T06:12:08;20.85;;;6.70;;
77105;SDS011;66057;54.718;18.426;2023-03-13T06:14:35;19.58;;;6.68;;
77105;SDS011;66057;54.718;18.426;2023-03-13T06:17:02;17.90;;;8.50;;
77105;SDS011;66057;54.718;18.426;2023-03-13T06:19:29;12.23;;;5.45;;
77105;SDS011;66057;54.718;18.426;2023-03-13T06:21:55;15.23;;;7.57;;
77105;SDS011;66057;54.718;18.426;2023-03-13T06:24:20;18.23;;;7.45;;
77105;SDS011;66057;54.718;18.426;2023-03-13T06:26:49;18.00;;;7.65;;
77105;SDS011;66057;54.718;18.426;2023-03-13T06:29:16;19.63;;;8.70;;
77105;SDS011;66057;54.718;18.426;2023-03-13T06:31:41;18.17;;;8.38;;
77105;SDS011;66057;54.718;18.426;2023-03-13T06:34:10;13.05;;;7.32;;
77105;SDS011;66057;54.718;18.426;2023-03-13T06:36:36;12.30;;;6.97;;
77105;SDS011;66057;54.718;18.426;2023-03-13T06:39:02;37.17;;;14.88;;
77105;SDS011;66057;54.718;18.426;2023-03-13T06:41:28;29.92;;;10.73;;
77105;SDS011;66057;54.718;18.426;2023-03-13T06:43:54;15.18;;;7.20;;
77105;SDS011;66057;54.718;18.426;2023-03-13T06:46:21;23.67;;;8.73;;
77105;SDS011;66057;54.718;18.426;2023-03-13T06:48:48;16.85;;;7.28;;
77105;SDS011;66057;54.718;18.426;2023-03-13T06:51:15;24.60;;;7.47;;
77105;SDS011;66057;54.718;18.426;2023-03-13T06:53:44;13.07;;;5.78;;
77105;SDS011;66057;54.718;18.426;2023-03-13T06:56:10;17.55;;;7.45;;
77105;SDS011;66057;54.718;18.426;2023-03-13T06:58:36;11.10;;;6.18;;
77105;SDS011;66057;54.718;18.426;2023-03-13T07:01:09;21.98;;;7.15;;
77105;SDS011;66057;54.718;18.426;2023-03-13T07:03:36;20.33;;;8.50;;
77105;SDS011;66057;54.718;18.426;2023-03-13T07:06:02;18.42;;;8.52;;
77105;SDS011;66057;54.718;18.426;2023-03-13T07:08:30;21.58;;;8.13;;
77105;SDS011;66057;54.718;18.426;2023-03-13T07:11:06;25.98;;;9.98;;
77105;SDS011;66057;54.718;18.426;2023-03-13T07:13:33;22.33;;;9.30;;
77105;SDS011;66057;54.718;18.426;2023-03-13T07:16:03;21.10;;;8.32;;
77105;SDS011;66057;54.718;18.426;2023-03-13T07:18:31;17.05;;;7.88;;
77105;SDS011;66057;54.718;18.426;2023-03-13T07:20:58;18.50;;;7.32;;
77105;SDS011;66057;54.718;18.426;2023-03-13T07:23:25;17.58;;;8.00;;
77105;SDS011;66057;54.718;18.426;2023-03-13T07:25:56;20.83;;;7.82;;
77105;SDS011;66057;54.718;18.426;2023-03-13T07:28:24;15.73;;;6.60;;
77105;SDS011;66057;54.718;18.426;2023-03-13T07:30:51;20.58;;;8.85;;
77105;SDS011;66057;54.718;18.426;2023-03-13T07:33:17;19.90;;;6.75;;
77105;SDS011;66057;54.718;18.426;2023-03-13T07:35:47;13.95;;;6.43;;
77105;SDS011;66057;54.718;18.426;2023-03-13T07:38:14;18.67;;;6.40;;
77105;SDS011;66057;54.718;18.426;2023-03-13T07:40:46;16.27;;;6.97;;
77105;SDS011;66057;54.718;18.426;2023-03-13T07:43:12;18.58;;;8.13;;
77105;SDS011;66057;54.718;18.426;2023-03-13T07:45:38;12.48;;;6.28;;
77105;SDS011;66057;54.718;18.426;2023-03-13T07:48:04;17.98;;;7.35;;
77105;SDS011;66057;54.718;18.426;2023-03-13T07:50:30;16.73;;;7.47;;
77105;SDS011;66057;54.718;18.426;2023-03-13T07:52:56;14.40;;;6.28;;
77105;SDS011;66057;54.718;18.426;2023-03-13T07:55:21;12.27;;;5.60;;
77105;SDS011;66057;54.718;18.426;2023-03-13T07:57:47;14.95;;;7.53;;
77105;SDS011;66057;54.718;18.426;2023-03-13T08:00:13;14.13;;;7.10;;
77105;SDS011;66057;54.718;18.426;2023-03-13T08:02:42;17.27;;;6.63;;
77105;SDS011;66057;54.718;18.426;2023-03-13T08:05:07;17.00;;;8.15;;
77105;SDS011;66057;54.718;18.426;2023-03-13T08:07:33;17.70;;;7.55;;
77105;SDS011;66057;54.718;18.426;2023-03-13T08:09:59;18.15;;;8.05;;
77105;SDS011;66057;54.718;18.426;2023-03-13T08:12:25;18.15;;;9.52;;
77105;SDS011;66057;54.718;18.426;2023-03-13T08:14:51;13.68;;;6.78;;
77105;SDS011;66057;54.718;18.426;2023-03-13T08:17:17;13.57;;;5.68;;
77105;SDS011;66057;54.718;18.426;2023-03-13T08:19:42;10.93;;;6.32;;
77105;SDS011;66057;54.718;18.426;2023-03-13T08:22:08;11.45;;;6.43;;
77105;SDS011;66057;54.718;18.426;2023-03-13T08:24:33;17.85;;;7.50;;
77105;SDS011;66057;54.718;18.426;2023-03-13T08:26:59;15.88;;;6.72;;
77105;SDS011;66057;54.718;18.426;2023-03-13T08:29:25;13.38;;;4.70;;
77105;SDS011;66057;54.718;18.426;2023-03-13T08:31:51;12.93;;;6.07;;
77105;SDS011;66057;54.718;18.426;2023-03-13T08:34:17;9.57;;;4.28;;
77105;SDS011;66057;54.718;18.426;2023-03-13T08:36:43;12.40;;;5.65;;
77105;SDS011;66057;54.718;18.426;2023-03-13T08:39:13;11.10;;;5.57;;
77105;SDS011;66057;54.718;18.426;2023-03-13T08:41:40;14.60;;;5.35;;
77105;SDS011;66057;54.718;18.426;2023-03-13T08:44:06;17.13;;;7.18;;
77105;SDS011;66057;54.718;18.426;2023-03-13T08:46:34;19.70;;;8.23;;
77105;SDS011;66057;54.718;18.426;2023-03-13T08:49:01;22.45;;;9.10;;
77105;SDS011;66057;54.718;18.426;2023-03-13T08:51:28;22.25;;;11.18;;
77105;SDS011;66057;54.718;18.426;2023-03-13T08:53:54;29.92;;;12.88;;
77105;SDS011;66057;54.718;18.426;2023-03-13T08:56:21;24.88;;;10.25;;
77105;SDS011;66057;54.718;18.426;2023-03-13T08:58:58;21.83;;;9.20;;
77105;SDS011;66057;54.718;18.426;2023-03-13T09:01:30;19.90;;;6.78;;
77105;SDS011;66057;54.718;18.426;2023-03-13T09:03:57;16.30;;;6.35;;
77105;SDS011;66057;54.718;18.426;2023-03-13T09:06:24;11.95;;;6.88;;
77105;SDS011;66057;54.718;18.426;2023-03-13T09:08:50;19.70;;;7.60;;
77105;SDS011;66057;54.718;18.426;2023-03-13T09:11:17;15.80;;;6.75;;
77105;SDS011;66057;54.718;18.426;2023-03-13T09:13:45;19.15;;;7.72;;
77105;SDS011;66057;54.718;18.426;2023-03-13T09:16:14;17.05;;;7.07;;
77105;SDS011;66057;54.718;18.426;2023-03-13T09:18:44;14.15;;;7.38;;
77105;SDS011;66057;54.718;18.426;2023-03-13T09:21:16;17.45;;;7.97;;
77105;SDS011;66057;54.718;18.426;2023-03-13T09:23:45;16.80;;;7.82;;
77105;SDS011;66057;54.718;18.426;2023-03-13T09:26:12;14.32;;;7.00;;
77105;SDS011;66057;54.718;18.426;2023-03-13T09:28:38;20.60;;;7.35;;
77105;SDS011;66057;54.718;18.426;2023-03-13T09:31:07;17.27;;;7.90;;
77105;SDS011;66057;54.718;18.426;2023-03-13T09:33:37;14.93;;;8.07;;
77105;SDS011;66057;54.718;18.426;2023-03-13T09:36:04;17.05;;;7.45;;
77105;SDS011;66057;54.718;18.426;2023-03-13T09:38:31;16.13;;;8.43;;
77105;SDS011;66057;54.718;18.426;2023-03-13T09:41:00;15.50;;;7.55;;
77105;SDS011;66057;54.718;18.426;2023-03-13T09:46:43;18.75;;;7.45;;
77105;SDS011;66057;54.718;18.426;2023-03-13T09:49:29;14.52;;;7.68;;
77105;SDS011;66057;54.718;18.426;2023-03-13T09:52:44;19.60;;;7.20;;
77105;SDS011;66057;54.718;18.426;2023-03-13T09:57:32;19.35;;;6.38;;
77105;SDS011;66057;54.718;18.426;2023-03-13T10:02:38;14.30;;;7.10;;
77105;SDS011;66057;54.718;18.426;2023-03-13T10:05:13;15.75;;;6.75;;
77105;SDS011;66057;54.718;18.426;2023-03-13T10:07:43;14.40;;;6.30;;
77105;SDS011;66057;54.718;18.426;2023-03-13T10:10:14;16.83;;;6.97;;
77105;SDS011;66057;54.718;18.426;2023-03-13T10:12:44;14.50;;;6.55;;
77105;SDS011;66057;54.718;18.426;2023-03-13T10:25:23;19.23;;;7.57;;
77105;SDS011;66057;54.718;18.426;2023-03-13T10:27:52;24.08;;;9.40;;
77105;SDS011;66057;54.718;18.426;2023-03-13T10:32:48;19.85;;;9.15;;
77105;SDS011;66057;54.718;18.426;2023-03-13T10:35:21;17.67;;;9.30;;
77105;SDS011;66057;54.718;18.426;2023-03-13T10:37:49;17.33;;;8.80;;
77105;SDS011;66057;54.718;18.426;2023-03-13T10:40:25;19.48;;;9.43;;
77105;SDS011;66057;54.718;18.426;2023-03-13T10:42:53;22.63;;;8.65;;
77105;SDS011;66057;54.718;18.426;2023-03-13T10:45:33;16.67;;;9.15;;
77105;SDS011;66057;54.718;18.426;2023-03-13T10:48:22;22.42;;;8.98;;
77105;SDS011;66057;54.718;18.426;2023-03-13T10:50:52;15.75;;;8.57;;
77105;SDS011;66057;54.718;18.426;2023-03-13T10:55:56;23.90;;;7.22;;
77105;SDS011;66057;54.718;18.426;2023-03-13T10:58:32;16.52;;;8.40;;
77105;SDS011;66057;54.718;18.426;2023-03-13T11:03:49;16.95;;;5.95;;
77105;SDS011;66057;54.718;18.426;2023-03-13T11:06:24;13.13;;;6.90;;
77105;SDS011;66057;54.718;18.426;2023-03-13T11:11:54;11.27;;;6.55;;
77105;SDS011;66057;54.718;18.426;2023-03-13T11:14:25;15.55;;;7.00;;
77105;SDS011;66057;54.718;18.426;2023-03-13T11:16:55;10.73;;;6.18;;
77105;SDS011;66057;54.718;18.426;2023-03-13T11:19:28;15.38;;;6.05;;
77105;SDS011;66057;54.718;18.426;2023-03-13T11:41:34;13.05;;;5.72;;
77105;SDS011;66057;54.718;18.426;2023-03-13T11:53:04;8.63;;;4.55;;
77105;SDS011;66057;54.718;18.426;2023-03-13T11:55:56;12.45;;;5.20;;
77105;SDS011;66057;54.718;18.426;2023-03-13T12:01:31;16.25;;;10.05;;
77105;SDS011;66057;54.718;18.426;2023-03-13T12:04:13;20.27;;;10.73;;
77105;SDS011;66057;54.718;18.426;2023-03-13T12:06:51;14.48;;;6.10;;
77105;SDS011;66057;54.718;18.426;2023-03-13T12:09:25;10.30;;;5.15;;
77105;SDS011;66057;54.718;18.426;2023-03-13T12:12:02;8.43;;;4.82;;
77105;SDS011;66057;54.718;18.426;2023-03-13T12:14:36;11.23;;;5.85;;
77105;SDS011;66057;54.718;18.426;2023-03-13T12:17:08;12.98;;;7.00;;
77105;SDS011;66057;54.718;18.426;2023-03-13T12:19:43;15.23;;;5.93;;
77105;SDS011;66057;54.718;18.426;2023-03-13T12:24:54;9.07;;;3.97;;
77105;SDS011;66057;54.718;18.426;2023-03-13T12:27:26;12.55;;;6.38;;
77105;SDS011;66057;54.718;18.426;2023-03-13T12:35:40;23.13;;;9.82;;
77105;SDS011;66057;54.718;18.426;2023-03-13T12:38:16;25.92;;;11.75;;
77105;SDS011;66057;54.718;18.426;2023-03-13T12:43:49;14.25;;;6.78;;
77105;SDS011;66057;54.718;18.426;2023-03-13T12:57:56;12.32;;;7.35;;
77105;SDS011;66057;54.718;18.426;2023-03-13T13:00:35;15.88;;;8.35;;
77105;SDS011;66057;54.718;18.426;2023-03-13T13:05:56;12.13;;;5.88;;
77105;SDS011;66057;54.718;18.426;2023-03-13T13:08:45;14.20;;;6.88;;
77105;SDS011;66057;54.718;18.426;2023-03-13T13:13:58;10.85;;;6.40;;
77105;SDS011;66057;54.718;18.426;2023-03-13T13:16:24;12.77;;;5.15;;
77105;SDS011;66057;54.718;18.426;2023-03-13T13:21:21;8.55;;;4.32;;
77105;SDS011;66057;54.718;18.426;2023-03-13T13:23:51;7.22;;;4.32;;
77105;SDS011;66057;54.718;18.426;2023-03-13T13:31:56;6.43;;;4.15;;
77105;SDS011;66057;54.718;18.426;2023-03-13T13:36:52;9.10;;;4.82;;
77105;SDS011;66057;54.718;18.426;2023-03-13T13:45:17;5.05;;;3.75;;
77105;SDS011;66057;54.718;18.426;2023-03-13T13:47:47;5.10;;;3.22;;
77105;SDS011;66057;54.718;18.426;2023-03-13T13:52:43;5.05;;;2.75;;
77105;SDS011;66057;54.718;18.426;2023-03-13T13:57:51;6.53;;;2.67;;
77105;SDS011;66057;54.718;18.426;2023-03-13T14:00:38;2.85;;;1.90;;
77105;SDS011;66057;54.718;18.426;2023-03-13T14:03:19;2.30;;;2.03;;
77105;SDS011;66057;54.718;18.426;2023-03-13T14:05:47;4.63;;;2.90;;
77105;SDS011;66057;54.718;18.426;2023-03-13T14:08:28;4.40;;;2.50;;
77105;SDS011;66057;54.718;18.426;2023-03-13T14:11:04;8.23;;;2.10;;
77105;SDS011;66057;54.718;18.426;2023-03-13T14:16:48;2.88;;;1.75;;
77105;SDS011;66057;54.718;18.426;2023-03-13T14:19:20;3.53;;;2.65;;
77105;SDS011;66057;54.718;18.426;2023-03-13T14:21:48;3.95;;;2.40;;
77105;SDS011;66057;54.718;18.426;2023-03-13T14:24:14;2.83;;;1.58;;
77105;SDS011;66057;54.718;18.426;2023-03-13T14:26:41;5.18;;;2.58;;
77105;SDS011;66057;54.718;18.426;2023-03-13T14:29:14;4.80;;;2.78;;
77105;SDS011;66057;54.718;18.426;2023-03-13T14:31:48;3.25;;;2.08;;
77105;SDS011;66057;54.718;18.426;2023-03-13T14:34:17;8.18;;;3.10;;
77105;SDS011;66057;54.718;18.426;2023-03-13T14:36:46;5.03;;;1.92;;
77105;SDS011;66057;54.718;18.426;2023-03-13T14:39:35;2.92;;;2.15;;
77105;SDS011;66057;54.718;18.426;2023-03-13T14:42:09;6.05;;;2.88;;
77105;SDS011;66057;54.718;18.426;2023-03-13T14:44:37;3.25;;;2.10;;
77105;SDS011;66057;54.718;18.426;2023-03-13T14:47:08;2.30;;;1.58;;
77105;SDS011;66057;54.718;18.426;2023-03-13T14:49:48;4.13;;;2.75;;
77105;SDS011;66057;54.718;18.426;2023-03-13T14:52:23;6.07;;;2.55;;
77105;SDS011;66057;54.718;18.426;2023-03-13T14:54:56;3.70;;;2.08;;
77105;SDS011;66057;54.718;18.426;2023-03-13T14:57:26;4.88;;;1.95;;
77105;SDS011;66057;54.718;18.426;2023-03-13T14:59:53;3.25;;;2.17;;
77105;SDS011;66057;54.718;18.426;2023-03-13T15:07:34;2.85;;;1.70;;
77105;SDS011;66057;54.718;18.426;2023-03-13T15:10:17;3.25;;;2.10;;
77105;SDS011;66057;54.718;18.426;2023-03-13T15:12:45;2.97;;;1.90;;
77105;SDS011;66057;54.718;18.426;2023-03-13T15:15:11;2.33;;;1.63;;
77105;SDS011;66057;54.718;18.426;2023-03-13T15:17:37;2.45;;;1.60;;
77105;SDS011;66057;54.718;18.426;2023-03-13T15:20:03;2.22;;;1.88;;
77105;SDS011;66057;54.718;18.426;2023-03-13T15:22:36;2.05;;;1.52;;
77105;SDS011;66057;54.718;18.426;2023-03-13T15:25:08;3.08;;;1.88;;
77105;SDS011;66057;54.718;18.426;2023-03-13T15:27:40;4.85;;;2.05;;
77105;SDS011;66057;54.718;18.426;2023-03-13T15:30:06;2.85;;;1.55;;
77105;SDS011;66057;54.718;18.426;2023-03-13T15:32:33;3.13;;;1.70;;
77105;SDS011;66057;54.718;18.426;2023-03-13T15:35:01;2.03;;;1.48;;
77105;SDS011;66057;54.718;18.426;2023-03-13T15:37:48;2.55;;;1.27;;
77105;SDS011;66057;54.718;18.426;2023-03-13T15:40:14;3.83;;;1.73;;
77105;SDS011;66057;54.718;18.426;2023-03-13T15:42:41;2.38;;;1.63;;
77105;SDS011;66057;54.718;18.426;2023-03-13T15:45:07;3.33;;;2.25;;
77105;SDS011;66057;54.718;18.426;2023-03-13T15:47:39;3.97;;;2.13;;
77105;SDS011;66057;54.718;18.426;2023-03-13T15:50:13;5.40;;;3.22;;
77105;SDS011;66057;54.718;18.426;2023-03-13T15:52:42;4.88;;;2.58;;
77105;SDS011;66057;54.718;18.426;2023-03-13T15:55:09;4.63;;;2.92;;
77105;SDS011;66057;54.718;18.426;2023-03-13T15:57:37;4.05;;;2.08;;
77105;SDS011;66057;54.718;18.426;2023-03-13T16:00:26;3.47;;;2.70;;
77105;SDS011;66057;54.718;18.426;2023-03-13T16:02:52;5.00;;;2.70;;
77105;SDS011;66057;54.718;18.426;2023-03-13T16:05:18;3.50;;;2.03;;
77105;SDS011;66057;54.718;18.426;2023-03-13T16:07:45;6.28;;;3.50;;
77105;SDS011;66057;54.718;18.426;2023-03-13T16:10:14;6.85;;;2.50;;
77105;SDS011;66057;54.718;18.426;2023-03-13T16:12:50;10.02;;;2.92;;
77105;SDS011;66057;54.718;18.426;2023-03-13T16:15:15;5.63;;;2.50;;
77105;SDS011;66057;54.718;18.426;2023-03-13T16:17:42;6.45;;;3.03;;
77105;SDS011;66057;54.718;18.426;2023-03-13T16:20:11;4.07;;;2.35;;
77105;SDS011;66057;54.718;18.426;2023-03-13T16:22:46;6.63;;;3.10;;
77105;SDS011;66057;54.718;18.426;2023-03-13T16:25:12;5.05;;;2.33;;
77105;SDS011;66057;54.718;18.426;2023-03-13T16:27:39;5.18;;;2.40;;
77105;SDS011;66057;54.718;18.426;2023-03-13T16:30:17;4.13;;;2.20;;
77105;SDS011;66057;54.718;18.426;2023-03-13T16:32:47;4.07;;;2.00;;
77105;SDS011;66057;54.718;18.426;2023-03-13T16:35:13;3.75;;;1.90;;
77105;SDS011;66057;54.718;18.426;2023-03-13T16:37:39;5.07;;;2.53;;
77105;SDS011;66057;54.718;18.426;2023-03-13T16:40:18;6.18;;;2.95;;
77105;SDS011;66057;54.718;18.426;2023-03-13T16:42:49;2.83;;;1.83;;
77105;SDS011;66057;54.718;18.426;2023-03-13T16:45:15;6.93;;;3.17;;
77105;SDS011;66057;54.718;18.426;2023-03-13T16:52:49;6.90;;;3.38;;